Mount Aukum, California
Current Conditions -  °F | °C
As of 6:55 PM on Monday 20 Oct 2014 (Local Time) from KPVF Reporting Station
Broken Clouds Broken Clouds  
Wind Chill: 54°   Ceiling: 1900
Heat Index: 54°   Visibility: 5mi
Dew Point: 48°   Wind: 12mph
Humidity: 82%   Direction: 210°SSW
Pressure: 30.01"   Gusts: 16mph
Location:  38.55°N, 120.73°W
Report Text: KPVF 210155Z AUTO 21010G14KT 5SM FEW014 BKN019 BKN026 12/09 A3001 RMK AO1
Loading
Personal Weather Stations






























Interactive Weather Map
Tropical Storm Tracking
New forecast layout! Learn more

10-Day Weather Forecast

Advertisements
Track Severe Weather on mobile